Time;durP1;ratioP1;P1;durP2;ratioP2;P2;SDS_P1;SDS_P2;PMS_P1;PMS_P2;Temp;Humidity;BMP_temperature;BMP_pressure;BME280_temperature;BME280_humidity;BME280_pressure;Samples;Min_cycle;Max_cycle;Signal;HPM_P1;HPM_P2
2021/06/03 00:04:23;;;;;;;15.65;9.50;;;;;;;8.73;66.76;100728.05;260710;1106;103181;-75
2021/06/03 00:09:31;;;;;;;13.28;8.95;;;;;;;8.59;66.63;100729.00;260613;1107;102961;-74
2021/06/03 00:14:36;;;;;;;11.00;8.78;;;;;;;8.51;66.76;100727.35;260152;1107;103015;-75
2021/06/03 00:19:40;;;;;;;13.85;9.10;;;;;;;8.42;66.86;100726.69;261098;1107;103000;-74
2021/06/03 00:24:45;;;;;;;8.30;7.53;;;;;;;8.28;67.50;100730.23;260590;1107;103334;-74
2021/06/03 00:29:52;;;;;;;14.98;9.88;;;;;;;8.22;67.72;100733.70;260054;1107;103062;-74
2021/06/03 00:34:56;;;;;;;12.30;8.58;;;;;;;8.13;67.57;100737.52;260028;1107;103229;-74
2021/06/03 00:40:05;;;;;;;11.38;7.78;;;;;;;8.14;67.56;100739.16;260680;1107;103014;-74
2021/06/03 00:45:14;;;;;;;12.57;9.57;;;;;;;8.04;67.88;100736.83;260607;1107;102990;-73
2021/06/03 00:50:24;;;;;;;15.68;9.43;;;;;;;7.97;68.71;100740.45;260059;1107;102966;-73
2021/06/03 00:55:33;;;;;;;8.83;5.80;;;;;;;7.81;68.01;100733.60;260174;1107;103644;-73
2021/06/03 01:00:39;;;;;;;14.98;10.25;;;;;;;7.67;68.30;100742.45;261188;1107;103017;-74
2021/06/03 01:05:50;;;;;;;13.95;9.15;;;;;;;7.62;68.58;100734.27;260239;1107;103071;-73
2021/06/03 01:11:06;;;;;;;10.98;9.95;;;;;;;7.60;68.76;100742.42;260908;1107;103033;-73
2021/06/03 01:16:12;;;;;;;6.50;5.78;;;;;;;7.52;68.70;100739.89;260148;1103;103036;-72
2021/06/03 01:21:29;;;;;;;6.93;6.28;;;;;;;7.38;68.60;100738.93;261322;1107;103036;-73
2021/06/03 01:26:34;;;;;;;12.43;9.83;;;;;;;7.24;69.23;100741.66;261570;1107;103053;-74
2021/06/03 01:31:40;;;;;;;12.10;8.60;;;;;;;7.18;69.50;100740.57;261848;1107;102963;-73
2021/06/03 01:36:48;;;;;;;11.33;9.33;;;;;;;7.26;69.46;100744.94;262685;1107;103049;-74
2021/06/03 01:41:56;;;;;;;8.60;7.80;;;;;;;7.24;69.15;100741.66;261594;1107;103171;-73
2021/06/03 01:47:03;;;;;;;8.23;7.00;;;;;;;7.16;68.90;100745.23;260103;1103;103067;-73
2021/06/03 01:52:09;;;;;;;17.18;8.33;;;;;;;7.12;69.44;100764.36;259943;1106;103139;-73
2021/06/03 01:57:14;;;;;;;14.13;8.48;;;;;;;7.13;69.20;100758.05;260509;1107;103714;-74
2021/06/03 02:02:20;;;;;;;12.55;9.43;;;;;;;7.10;70.20;100754.76;260613;1107;103014;-73
2021/06/03 02:07:24;;;;;;;11.40;10.10;;;;;;;7.02;70.27;100751.42;260092;1107;102974;-73
2021/06/03 02:12:32;;;;;;;9.15;7.23;;;;;;;7.04;70.18;100738.77;260547;1107;103071;-73
2021/06/03 02:17:46;;;;;;;11.75;8.38;;;;;;;6.93;69.73;100756.00;260213;1102;103052;-73
2021/06/03 02:22:53;;;;;;;17.23;13.65;;;;;;;6.90;70.34;100753.72;261234;1103;102989;-73
2021/06/03 02:27:59;;;;;;;12.50;9.70;;;;;;;6.90;70.17;100755.55;260131;1107;102971;-72
2021/06/03 02:33:04;;;;;;;23.08;11.25;;;;;;;6.90;70.90;100759.02;260123;1107;102988;-73
2021/06/03 02:38:10;;;;;;;8.78;6.40;;;;;;;6.87;70.70;100756.73;260114;1107;102991;-73
2021/06/03 02:43:15;;;;;;;11.78;9.20;;;;;;;6.83;71.11;100754.64;260245;1107;103033;-73
2021/06/03 02:48:21;;;;;;;9.85;8.43;;;;;;;6.80;70.99;100762.95;260964;1107;103007;-74
2021/06/03 02:53:26;;;;;;;14.35;9.95;;;;;;;6.88;70.24;100761.03;261370;1107;103178;-73
2021/06/03 02:58:31;;;;;;;18.08;10.18;;;;;;;6.93;70.35;100771.08;260500;1107;103031;-73
2021/06/03 03:03:37;;;;;;;15.23;8.58;;;;;;;6.92;70.28;100772.91;261192;1103;102934;-73
2021/06/03 03:08:42;;;;;;;11.80;9.45;;;;;;;6.98;71.08;100776.66;261121;1103;103064;-73
2021/06/03 03:13:47;;;;;;;10.78;8.95;;;;;;;7.15;71.39;100787.85;260483;1107;102962;-73
2021/06/03 03:18:53;;;;;;;13.03;10.88;;;;;;;7.32;71.85;100776.02;260856;1107;103043;-73
2021/06/03 03:23:59;;;;;;;20.80;12.40;;;;;;;7.44;70.89;100774.50;261571;1107;103652;-73
2021/06/03 03:29:04;;;;;;;12.93;10.18;;;;;;;7.56;71.05;100769.52;260340;1107;103341;-72
2021/06/03 03:34:08;;;;;;;12.95;11.28;;;;;;;7.68;71.53;100781.25;261381;1107;102962;-73
2021/06/03 03:39:13;;;;;;;8.00;5.93;;;;;;;7.81;71.32;100791.17;262698;1107;102371;-73
2021/06/03 03:44:18;;;;;;;15.15;9.80;;;;;;;7.94;71.11;100793.95;262750;1107;101135;-73
2021/06/03 03:49:25;;;;;;;14.05;12.55;;;;;;;8.18;71.05;100800.67;262638;1107;102130;-73
2021/06/03 03:54:30;;;;;;;13.15;9.80;;;;;;;8.56;71.62;100804.63;261310;1107;103035;-72
2021/06/03 03:59:36;;;;;;;10.10;9.10;;;;;;;8.84;71.21;100796.63;261378;1107;102954;-73
2021/06/03 04:04:41;;;;;;;15.68;10.70;;;;;;;9.09;71.18;100797.75;261026;1107;103117;-73
2021/06/03 04:09:45;;;;;;;16.68;10.70;;;;;;;9.44;70.20;100794.98;260461;1107;103093;-73
2021/06/03 04:14:50;;;;;;;17.95;10.30;;;;;;;9.85;70.48;100805.47;260608;1107;103108;-73
2021/06/03 04:19:55;;;;;;;11.45;8.53;;;;;;;11.32;69.12;100804.97;260928;1103;102938;-73
2021/06/03 04:24:59;;;;;;;12.60;9.28;;;;;;;15.21;64.85;100794.55;260436;1103;104840;-73
2021/06/03 04:30:12;;;;;;;14.87;8.97;;;;;;;16.03;63.70;100815.64;260185;1107;102995;-73
2021/06/03 04:35:19;;;;;;;13.10;7.93;;;;;;;17.78;59.96;100806.59;260564;1107;102981;-71
2021/06/03 04:40:24;;;;;;;7.10;5.98;;;;;;;20.22;57.06;100806.80;260353;1107;102985;-70
2021/06/03 04:45:30;;;;;;;11.53;7.68;;;;;;;20.10;55.59;100818.74;260694;1107;103071;-70
2021/06/03 04:50:35;;;;;;;8.88;7.80;;;;;;;20.12;55.43;100826.59;260942;1107;103024;-70
2021/06/03 04:55:40;;;;;;;11.38;7.58;;;;;;;19.71;54.61;100815.74;260468;1107;103109;-70
2021/06/03 05:00:45;;;;;;;8.20;7.13;;;;;;;19.73;53.75;100824.41;260564;1107;103037;-70
2021/06/03 05:05:49;;;;;;;6.70;5.98;;;;;;;23.06;49.84;100816.63;261138;1107;103026;-71
2021/06/03 05:10:53;;;;;;;7.25;6.63;;;;;;;26.99;46.67;100828.22;260086;1107;103011;-71
2021/06/03 05:15:59;;;;;;;;;;;;;;;30.30;42.74;100831.78;260572;1107;103078;-71
2021/06/03 05:21:06;;;;;;;6.13;5.35;;;;;;;32.87;39.72;100832.67;261019;1106;103375;-73
2021/06/03 05:26:11;;;;;;;6.48;4.05;;;;;;;34.78;35.68;100838.50;262161;1107;102555;-71
2021/06/03 05:31:15;;;;;;;3.55;2.85;;;;;;;36.21;32.90;100840.38;262438;1107;102084;-72
2021/06/03 05:36:20;;;;;;;2.05;1.90;;;;;;;37.49;30.56;100853.27;262237;1107;103059;-70
2021/06/03 05:41:24;;;;;;;2.83;2.03;;;;;;;38.59;28.31;100847.21;261879;1107;102931;-70
2021/06/03 05:46:29;;;;;;;3.13;2.53;;;;;;;39.64;26.22;100850.20;261828;1107;103014;-69
2021/06/03 05:51:33;;;;;;;2.10;1.90;;;;;;;40.35;24.94;100847.02;262379;1107;102660;-71
2021/06/03 05:56:38;;;;;;;2.80;2.38;;;;;;;40.76;23.29;100847.07;261571;1107;102975;-72
2021/06/03 06:01:43;;;;;;;2.80;1.60;;;;;;;41.23;22.27;100859.41;260897;1107;103063;-71
2021/06/03 06:06:48;;;;;;;1.98;1.58;;;;;;;41.49;20.38;100857.09;260966;1107;102963;-72
2021/06/03 06:11:53;;;;;;;1.83;1.73;;;;;;;41.63;20.01;100863.31;260783;1107;104477;-71
2021/06/03 06:16:58;;;;;;;1.83;1.60;;;;;;;41.62;18.78;100858.92;261985;1107;102986;-72
2021/06/03 06:22:04;;;;;;;1.60;1.50;;;;;;;41.45;18.57;100864.73;260920;1107;103043;-72
2021/06/03 06:27:10;;;;;;;2.98;2.45;;;;;;;41.59;17.88;100864.56;261231;1107;103036;-72
2021/06/03 06:32:15;;;;;;;1.70;1.60;;;;;;;41.69;17.64;100858.84;260223;1101;102962;-77
2021/06/03 06:37:19;;;;;;;2.00;1.50;;;;;;;41.62;17.13;100856.13;260693;1102;103337;-77
2021/06/03 06:42:26;;;;;;;2.03;1.60;;;;;;;41.36;17.50;100868.03;260341;1107;103211;-69
2021/06/03 06:47:33;;;;;;;0.68;0.68;;;;;;;41.20;16.00;100865.03;260685;1107;103741;-71
2021/06/03 06:52:38;;;;;;;2.40;1.68;;;;;;;40.35;16.19;100861.78;260051;1107;103091;-72
2021/06/03 06:57:42;;;;;;;2.25;1.15;;;;;;;39.47;17.25;100862.22;260624;1106;103330;-71
2021/06/03 07:02:46;;;;;;;3.88;1.28;;;;;;;38.75;16.78;100855.97;260793;1107;102943;-71
2021/06/03 07:07:50;;;;;;;2.08;1.53;;;;;;;38.51;17.33;100857.55;260385;1107;102962;-70
2021/06/03 07:12:55;;;;;;;3.90;1.53;;;;;;;37.88;15.87;100866.57;261059;1102;102881;-70
2021/06/03 07:18:00;;;;;;;1.53;1.43;;;;;;;36.74;16.83;100863.91;261294;1106;103091;-71
2021/06/03 07:23:06;;;;;;;1.03;1.03;;;;;;;35.97;17.62;100858.38;261200;1107;102939;-71
2021/06/03 07:28:13;;;;;;;1.25;1.08;;;;;;;35.13;18.18;100858.83;260595;1107;103650;-71
2021/06/03 07:33:18;;;;;;;84.53;10.58;;;;;;;34.38;19.03;100854.83;262404;1107;102952;-72
2021/06/03 07:38:29;;;;;;;1.58;1.48;;;;;;;33.73;18.82;100863.81;261615;1107;103043;-73
2021/06/03 07:43:35;;;;;;;1.88;1.15;;;;;;;32.94;19.41;100863.23;262309;1107;102936;-74
2021/06/03 07:48:40;;;;;;;1.50;1.40;;;;;;;32.42;19.39;100842.18;262447;1107;102974;-75
2021/06/03 07:53:44;;;;;;;1.60;1.50;;;;;;;31.60;20.43;100841.05;261275;1101;102933;-73
2021/06/03 07:58:49;;;;;;;5.75;2.35;;;;;;;31.15;20.69;100833.83;260149;1107;102958;-70
2021/06/03 08:03:55;;;;;;;8.00;2.25;;;;;;;30.86;21.32;100836.81;260810;1107;103151;-74
2021/06/03 08:09:01;;;;;;;4.70;1.75;;;;;;;30.41;21.26;100832.95;260698;1106;102949;-74
2021/06/03 08:14:07;;;;;;;2.48;1.60;;;;;;;29.99;21.90;100837.77;260445;1107;103140;-72
2021/06/03 08:19:12;;;;;;;3.20;2.83;;;;;;;29.02;21.79;100838.00;259747;1102;103081;-72
2021/06/03 08:24:17;;;;;;;2.60;2.33;;;;;;;28.88;23.32;100831.13;259974;1107;103034;-76
2021/06/03 08:29:22;;;;;;;4.55;2.35;;;;;;;28.86;22.81;100836.14;260514;1107;103091;-73
2021/06/03 08:34:27;;;;;;;2.28;2.08;;;;;;;28.53;23.18;100819.47;261324;1107;102972;-77
2021/06/03 08:39:31;;;;;;;3.30;1.50;;;;;;;28.29;22.12;100823.59;259718;1107;103172;-75
2021/06/03 08:44:36;;;;;;;2.25;2.00;;;;;;;28.29;23.56;100818.11;260410;1106;102959;-75
2021/06/03 08:49:40;;;;;;;3.43;2.43;;;;;;;28.20;24.41;100819.23;259932;1107;103401;-75
2021/06/03 08:54:45;;;;;;;2.20;2.00;;;;;;;28.41;23.93;100823.73;260466;1107;102968;-72
2021/06/03 08:59:50;;;;;;;4.45;2.35;;;;;;;28.61;23.50;100819.45;260143;1107;102970;-73
2021/06/03 09:04:54;;;;;;;50.73;5.63;;;;;;;28.57;23.22;100821.23;259915;1107;103338;-73
2021/06/03 09:10:28;;;;;;;2.55;1.93;;;;;;;27.79;22.52;100817.88;260687;1107;103093;-71
2021/06/03 09:15:33;;;;;;;2.65;2.33;;;;;;;27.61;23.04;100818.98;261903;1107;101578;-73
2021/06/03 09:20:40;;;;;;;4.60;1.80;;;;;;;27.89;23.25;100805.75;261449;1107;103014;-71
2021/06/03 09:25:44;;;;;;;2.23;1.88;;;;;;;28.24;23.88;100811.99;261117;1107;102954;-72
2021/06/03 09:30:52;;;;;;;2.73;2.50;;;;;;;28.47;23.71;100808.67;261618;1107;103136;-71
2021/06/03 09:35:57;;;;;;;2.15;1.98;;;;;;;28.59;24.33;100821.71;262573;1106;102618;-74
2021/06/03 09:41:02;;;;;;;2.95;2.68;;;;;;;28.60;22.73;100814.29;262592;1107;102863;-74
2021/06/03 09:46:07;;;;;;;2.15;2.00;;;;;;;28.57;23.69;100809.45;260651;1107;103817;-70
2021/06/03 09:51:20;;;;;;;5.08;2.08;;;;;;;28.56;24.47;100803.17;260956;1107;102960;-72
2021/06/03 09:56:31;;;;;;;3.93;2.28;;;;;;;28.59;23.71;100799.77;260303;1106;103105;-72
2021/06/03 10:01:52;;;;;;;8.75;2.33;;;;;;;28.50;23.18;100802.54;261784;1107;102957;-72
2021/06/03 10:07:19;;;;;;;3.05;2.08;;;;;;;28.79;22.94;100812.73;260942;1103;103018;-72
2021/06/03 10:12:27;;;;;;;1.88;1.78;;;;;;;28.77;24.89;100809.51;261528;1107;103056;-71
2021/06/03 10:17:46;;;;;;;1.90;1.80;;;;;;;28.76;24.33;100807.09;261416;1106;103051;-70
2021/06/03 10:22:53;;;;;;;3.13;2.20;;;;;;;28.58;24.45;100803.64;260704;1107;103193;-72
2021/06/03 10:28:02;;;;;;;1.93;1.73;;;;;;;28.61;23.97;100807.67;261298;1107;102768;-72
2021/06/03 10:33:11;;;;;;;2.15;2.05;;;;;;;28.40;24.68;100811.15;262039;1107;103082;-71
2021/06/03 10:38:15;;;;;;;3.38;2.30;;;;;;;28.54;25.49;100807.37;260433;1107;103040;-72
2021/06/03 10:43:19;;;;;;;1.93;1.73;;;;;;;28.66;25.51;100807.48;260061;1107;103075;-72
2021/06/03 10:48:23;;;;;;;2.60;2.40;;;;;;;28.00;25.00;100807.03;260554;1107;104015;-73
2021/06/03 10:53:30;;;;;;;5.63;2.35;;;;;;;28.00;25.14;100809.77;260427;1102;103010;-72
2021/06/03 10:58:38;;;;;;;4.75;2.55;;;;;;;27.78;24.04;100786.92;260066;1107;103040;-75
2021/06/03 11:04:05;;;;;;;3.53;2.70;;;;;;;27.97;23.79;100793.97;261196;1107;103006;-70
2021/06/03 11:09:09;;;;;;;4.88;2.73;;;;;;;28.29;24.13;100785.20;261344;1107;102997;-73
2021/06/03 11:14:15;;;;;;;10.08;2.75;;;;;;;28.40;24.54;100796.63;262220;1107;101199;-73
2021/06/03 11:19:30;;;;;;;3.98;2.73;;;;;;;28.49;24.21;100780.92;261090;1107;102968;-72
2021/06/03 11:24:35;;;;;;;4.53;2.00;;;;;;;28.60;23.15;100770.39;261556;1107;102936;-71
2021/06/03 11:29:52;;;;;;;2.68;2.23;;;;;;;28.65;23.75;100772.95;261670;1107;102992;-72
2021/06/03 11:34:59;;;;;;;3.03;1.83;;;;;;;28.54;22.91;100771.70;259853;1107;103075;-74
2021/06/03 11:40:12;;;;;;;3.55;2.45;;;;;;;28.02;23.68;100767.20;261393;1107;103015;-76
2021/06/03 11:45:27;;;;;;;3.53;2.53;;;;;;;27.45;24.12;100763.88;261263;1107;102955;-74
2021/06/03 11:50:35;;;;;;;2.93;2.08;;;;;;;26.90;24.09;100763.65;262178;1107;101785;-76
2021/06/03 11:55:48;;;;;;;6.85;2.70;;;;;;;27.14;23.82;100759.36;262349;1107;101884;-72
2021/06/03 12:01:15;;;;;;;2.30;2.10;;;;;;;27.56;24.04;100751.45;259929;1107;103347;-75
2021/06/03 12:06:28;;;;;;;3.23;1.75;;;;;;;27.59;24.96;100759.05;260852;1107;103002;-70
2021/06/03 12:11:39;;;;;;;3.35;2.43;;;;;;;27.71;23.71;100745.52;261282;1107;103046;-74
2021/06/03 12:16:52;;;;;;;3.13;2.50;;;;;;;27.88;24.59;100746.59;261037;1107;102938;-73
2021/06/03 12:22:04;;;;;;;3.63;1.93;;;;;;;27.85;23.99;100734.34;261184;1107;103046;-73
2021/06/03 12:27:22;;;;;;;2.73;2.35;;;;;;;27.40;23.96;100737.46;260009;1107;103094;-77
2021/06/03 12:32:26;;;;;;;2.63;2.20;;;;;;;26.58;24.18;100732.03;260492;1107;102932;-75
2021/06/03 12:37:35;;;;;;;2.55;2.30;;;;;;;26.01;24.48;100731.91;259716;1107;103059;-75
2021/06/03 12:42:42;;;;;;;3.25;2.33;;;;;;;25.55;26.28;100729.53;260423;1107;102961;-75
2021/06/03 12:47:51;;;;;;;6.25;2.68;;;;;;;25.29;26.65;100732.06;259704;1106;103107;-73
2021/06/03 12:52:56;;;;;;;3.48;2.55;;;;;;;25.55;27.54;100710.41;261227;1107;102988;-73
2021/06/03 12:58:06;;;;;;;1.83;1.73;;;;;;;25.91;27.12;100716.62;261405;1107;102971;-72
2021/06/03 13:03:12;;;;;;;8.28;4.00;;;;;;;26.27;26.36;100711.00;260723;1107;102972;-77
2021/06/03 13:08:18;;;;;;;5.65;3.50;;;;;;;26.44;25.49;100702.88;259743;1107;102959;-70
2021/06/03 13:13:23;;;;;;;7.93;2.25;;;;;;;26.45;25.51;100701.75;261359;1106;103011;-70
2021/06/03 13:18:27;;;;;;;2.40;2.23;;;;;;;26.64;26.56;100693.26;260967;1106;103230;-71
2021/06/03 13:23:32;;;;;;;4.33;3.53;;;;;;;26.69;25.78;100692.31;260581;1107;103089;-70
2021/06/03 13:28:37;;;;;;;11.58;6.58;;;;;;;26.69;25.77;100697.78;259642;1107;103028;-74
2021/06/03 13:33:42;;;;;;;2.95;2.73;;;;;;;26.60;24.90;100692.28;262157;1107;103069;-75
2021/06/03 13:38:49;;;;;;;2.28;2.08;;;;;;;26.38;24.07;100685.00;262565;1107;102533;-71
2021/06/03 13:44:02;;;;;;;2.95;2.75;;;;;;;26.36;24.54;100680.97;262573;1107;101135;-71
2021/06/03 13:49:07;;;;;;;4.63;2.43;;;;;;;25.94;25.00;100688.67;262650;1107;101667;-71
2021/06/03 13:54:17;;;;;;;2.55;2.20;;;;;;;25.56;25.52;100682.00;262037;1106;102421;-72
2021/06/03 13:59:21;;;;;;;2.35;2.25;;;;;;;25.54;27.01;100682.30;261198;1107;102971;-70
2021/06/03 14:04:26;;;;;;;2.55;2.35;;;;;;;25.57;26.56;100684.42;260345;1107;102944;-69
2021/06/03 14:09:31;;;;;;;;;;;;;;;25.42;25.77;100682.05;259593;1107;102965;-69
2021/06/03 14:14:39;;;;;;;4.18;2.03;;;;;;;25.30;25.63;100690.82;259762;1107;103075;-73
2021/06/03 14:19:49;;;;;;;1.85;1.75;;;;;;;25.23;26.31;100678.72;260187;1107;103129;-75
2021/06/03 14:24:54;;;;;;;2.10;2.00;;;;;;;25.15;26.11;100675.61;261102;1107;102957;-75
2021/06/03 14:30:14;;;;;;;4.60;2.58;;;;;;;25.12;26.63;100675.41;260066;1107;103141;-73
2021/06/03 14:35:30;;;;;;;2.63;2.43;;;;;;;25.11;26.14;100663.69;261307;1107;103592;-75
2021/06/03 14:40:38;;;;;;;6.43;2.53;;;;;;;25.18;25.52;100663.27;260533;1101;102972;-73
2021/06/03 14:45:46;;;;;;;3.20;2.90;;;;;;;25.26;26.08;100665.27;260458;1107;104366;-70
2021/06/03 14:50:53;;;;;;;2.75;2.58;;;;;;;25.29;25.57;100663.84;260299;1107;102966;-71
2021/06/03 14:56:00;;;;;;;2.73;2.53;;;;;;;25.33;26.14;100656.64;261689;1107;102965;-70
2021/06/03 15:01:10;;;;;;;2.68;2.48;;;;;;;25.40;26.80;100665.18;260113;1107;103014;-70
2021/06/03 15:06:18;;;;;;;3.58;2.98;;;;;;;25.33;26.84;100664.83;261334;1107;102986;-70
2021/06/03 15:11:26;;;;;;;2.73;2.53;;;;;;;25.12;26.72;100662.58;261087;1106;103164;-71
2021/06/03 15:16:32;;;;;;;10.33;6.60;;;;;;;24.71;26.78;100661.89;261819;1107;102937;-76
2021/06/03 15:21:39;;;;;;;7.28;3.93;;;;;;;24.30;26.98;100662.74;260862;1107;103026;-70
2021/06/03 15:26:44;;;;;;;10.30;4.23;;;;;;;23.99;27.30;100669.86;262031;1107;102958;-71
2021/06/03 15:31:50;;;;;;;7.30;3.80;;;;;;;23.75;27.74;100662.68;260115;1107;103284;-72
2021/06/03 15:36:55;;;;;;;4.48;2.73;;;;;;;23.50;28.48;100665.82;260929;1107;103603;-72
2021/06/03 15:42:00;;;;;;;5.38;3.03;;;;;;;23.27;29.42;100672.98;261640;1107;102940;-77
2021/06/03 15:47:06;;;;;;;3.17;2.87;;;;;;;23.06;30.53;100667.05;261943;1103;103152;-75
2021/06/03 15:52:18;;;;;;;2.58;2.38;;;;;;;22.87;30.75;100658.11;262586;1107;101550;-73
2021/06/03 15:57:24;;;;;;;2.70;2.50;;;;;;;22.76;31.60;100654.69;262621;1107;101135;-74
2021/06/03 16:02:29;;;;;;;2.80;2.60;;;;;;;22.67;32.33;100661.06;261799;1107;102968;-76
2021/06/03 16:07:34;;;;;;;8.43;3.08;;;;;;;22.60;31.63;100647.05;260927;1106;102990;-77
2021/06/03 16:12:40;;;;;;;3.68;3.38;;;;;;;22.68;32.38;100649.09;260882;1107;103065;-77
2021/06/03 16:17:47;;;;;;;5.63;2.80;;;;;;;22.79;32.01;100650.61;260287;1107;103110;-69
2021/06/03 16:22:54;;;;;;;5.05;2.75;;;;;;;22.94;31.50;100641.41;260947;1103;103288;-73
2021/06/03 16:28:00;;;;;;;5.30;2.10;;;;;;;23.04;31.42;100642.06;260994;1107;102987;-74
2021/06/03 16:33:20;;;;;;;2.40;2.25;;;;;;;23.08;31.04;100648.53;261123;1107;103093;-73
2021/06/03 16:38:43;;;;;;;3.33;2.33;;;;;;;23.07;30.92;100638.76;261361;1107;103829;-71
2021/06/03 16:43:57;;;;;;;36.33;5.35;;;;;;;23.04;30.90;100646.70;260573;1107;103183;-73
2021/06/03 16:49:03;;;;;;;7.15;2.60;;;;;;;23.00;30.97;100635.59;260980;1107;104102;-75
2021/06/03 16:54:08;;;;;;;3.98;2.33;;;;;;;22.83;30.78;100638.86;260567;1102;102962;-71
2021/06/03 16:59:12;;;;;;;6.58;2.43;;;;;;;22.77;30.81;100634.55;260308;1102;103107;-73
2021/06/03 17:04:17;;;;;;;2.15;1.83;;;;;;;22.64;30.81;100643.42;260035;1107;103224;-70
2021/06/03 17:09:21;;;;;;;3.10;2.50;;;;;;;22.50;30.85;100646.08;260251;1107;103072;-73
2021/06/03 17:14:25;;;;;;;2.25;2.08;;;;;;;22.32;31.63;100640.63;261151;1107;103617;-73
2021/06/03 17:19:30;;;;;;;6.55;2.60;;;;;;;22.08;33.05;100646.85;260575;1107;103072;-76
2021/06/03 17:24:33;;;;;;;5.30;2.55;;;;;;;21.82;34.27;100648.20;260822;1107;103112;-75
2021/06/03 17:29:37;;;;;;;2.63;2.38;;;;;;;21.60;35.35;100651.41;261167;1107;102997;-73
2021/06/03 17:34:42;;;;;;;5.90;2.35;;;;;;;21.41;36.12;100655.89;260903;1107;102885;-74
2021/06/03 17:39:47;;;;;;;3.25;2.28;;;;;;;21.23;37.57;100662.02;260052;1107;103136;-77
2021/06/03 17:44:52;;;;;;;;;;;;;;;21.06;38.27;100665.11;260307;1107;102968;-77
2021/06/03 17:49:56;;;;;;;7.90;4.38;;;;;;;20.84;39.50;100662.78;260503;1107;102957;-77
2021/06/03 17:55:02;;;;;;;8.18;3.48;;;;;;;20.65;40.44;100667.23;260967;1106;103000;-78
2021/06/03 18:00:11;;;;;;;2.98;2.70;;;;;;;20.44;41.12;100670.05;261825;1106;103078;-76
2021/06/03 18:05:17;;;;;;;9.20;4.00;;;;;;;20.24;41.24;100671.97;262560;1107;103023;-79
2021/06/03 18:10:23;;;;;;;3.45;3.15;;;;;;;20.06;42.45;100665.27;262318;1107;101344;-80
2021/06/03 18:15:28;;;;;;;2.95;2.75;;;;;;;19.83;41.75;100662.08;261563;1107;102972;-79
2021/06/03 18:20:35;;;;;;;4.75;3.15;;;;;;;19.59;42.12;100669.13;261637;1107;103089;-80
2021/06/03 18:25:43;;;;;;;4.35;4.00;;;;;;;19.32;43.19;100669.37;260509;1101;103062;-79
2021/06/03 18:30:48;;;;;;;10.03;4.03;;;;;;;19.02;43.82;100678.25;260948;1103;103070;-79
2021/06/03 18:35:53;;;;;;;4.38;3.45;;;;;;;18.70;44.41;100681.14;260570;1107;102983;-77
2021/06/03 18:41:00;;;;;;;4.80;4.28;;;;;;;18.38;45.07;100675.86;260593;1107;102953;-75
2021/06/03 18:46:06;;;;;;;4.08;3.70;;;;;;;18.13;45.31;100686.53;260019;1102;103067;-78
2021/06/03 18:51:13;;;;;;;4.85;3.55;;;;;;;17.87;45.92;100687.45;260489;1107;103107;-76
2021/06/03 18:56:20;;;;;;;4.38;3.63;;;;;;;17.60;46.60;100687.50;260538;1107;103025;-73
2021/06/03 19:01:26;;;;;;;4.25;3.93;;;;;;;17.33;47.27;100701.84;260632;1107;103048;-76
2021/06/03 19:06:31;;;;;;;4.43;3.30;;;;;;;16.90;47.42;100704.63;260506;1107;103039;-76
2021/06/03 19:11:35;;;;;;;4.20;3.80;;;;;;;16.65;48.26;100707.84;260174;1101;103357;-76
2021/06/03 19:16:42;;;;;;;6.08;4.68;;;;;;;16.40;49.18;100709.13;259957;1107;102966;-79
2021/06/03 19:21:47;;;;;;;5.23;3.70;;;;;;;16.19;49.84;100704.55;259908;1107;103007;-79
2021/06/03 19:26:56;;;;;;;4.33;3.75;;;;;;;15.88;50.00;100710.55;260437;1107;102972;-76
2021/06/03 19:32:01;;;;;;;4.18;2.85;;;;;;;15.58;50.65;100710.88;261617;1107;103113;-79
2021/06/03 19:37:07;;;;;;;4.38;4.08;;;;;;;15.34;51.37;100715.52;261176;1102;103107;-73
2021/06/03 19:42:12;;;;;;;6.33;3.97;;;;;;;15.25;52.13;100725.05;261412;1106;102963;-75
2021/06/03 19:47:17;;;;;;;4.50;3.70;;;;;;;15.12;52.61;100710.84;261609;1107;103205;-77
2021/06/03 19:52:22;;;;;;;4.05;3.68;;;;;;;14.89;52.41;100720.88;261582;1107;102914;-76
2021/06/03 19:57:27;;;;;;;5.45;4.73;;;;;;;14.67;53.01;100718.03;262182;1107;102261;-77
2021/06/03 20:02:33;;;;;;;7.67;3.77;;;;;;;14.52;54.04;100721.20;262422;1107;102008;-76
2021/06/03 20:07:38;;;;;;;7.48;4.13;;;;;;;14.26;54.14;100724.37;260527;1107;102995;-76
2021/06/03 20:12:44;;;;;;;6.88;5.25;;;;;;;14.06;55.09;100722.06;260983;1107;102985;-74
2021/06/03 20:17:50;;;;;;;10.48;6.35;;;;;;;13.91;55.64;100721.69;260496;1107;103030;-77
2021/06/03 20:22:56;;;;;;;;;;;;;;;13.75;55.86;100721.34;260354;1107;103058;-78
2021/06/03 20:28:03;;;;;;;10.28;5.08;;;;;;;13.66;57.13;100728.08;261010;1106;103040;-75
2021/06/03 20:33:10;;;;;;;6.98;5.50;;;;;;;13.56;57.03;100727.00;260516;1107;103171;-78
2021/06/03 20:38:18;;;;;;;10.43;5.08;;;;;;;13.41;57.53;100730.95;260938;1107;102967;-78
2021/06/03 20:43:24;;;;;;;8.10;5.53;;;;;;;13.27;57.89;100737.52;260474;1107;103072;-76
2021/06/03 20:48:30;;;;;;;6.35;4.88;;;;;;;13.18;58.50;100733.53;260820;1107;102961;-79
2021/06/03 20:53:36;;;;;;;9.30;5.53;;;;;;;12.95;58.96;100736.08;260727;1107;103075;-79
2021/06/03 20:58:41;;;;;;;10.75;5.20;;;;;;;12.76;59.36;100728.09;261296;1107;102966;-78
2021/06/03 21:03:44;;;;;;;13.45;8.40;;;;;;;12.78;59.76;100730.55;260414;1107;103063;-78
2021/06/03 21:08:49;;;;;;;7.95;5.78;;;;;;;12.75;59.70;100729.14;260896;1107;103136;-78
2021/06/03 21:13:54;;;;;;;12.40;5.65;;;;;;;12.58;59.89;100725.41;260854;1107;103391;-76
2021/06/03 21:19:00;;;;;;;15.23;7.35;;;;;;;12.52;60.63;100725.52;261581;1107;102968;-77
2021/06/03 21:24:06;;;;;;;19.24;6.72;;;;;;;12.56;61.00;100724.00;260080;1101;103159;-77
2021/06/03 21:29:11;;;;;;;12.23;6.33;;;;;;;12.50;61.26;100725.73;260809;1107;103178;-76
2021/06/03 21:34:16;;;;;;;13.88;6.15;;;;;;;12.27;61.05;100734.39;260486;1107;103045;-77
2021/06/03 21:39:21;;;;;;;19.03;7.35;;;;;;;12.18;61.84;100727.72;260508;1107;103056;-74
2021/06/03 21:44:27;;;;;;;16.18;5.90;;;;;;;12.06;61.88;100722.27;260100;1107;103035;-76
2021/06/03 21:49:32;;;;;;;9.63;6.23;;;;;;;11.88;62.12;100730.27;260010;1107;103101;-77
2021/06/03 21:54:37;;;;;;;14.65;9.45;;;;;;;11.84;63.11;100729.06;261442;1107;103193;-78
2021/06/03 21:59:43;;;;;;;11.48;7.40;;;;;;;11.82;62.76;100730.31;261289;1107;103061;-72
2021/06/03 22:04:48;;;;;;;18.83;11.13;;;;;;;11.69;63.02;100726.67;262190;1107;102965;-77
2021/06/03 22:09:53;;;;;;;19.58;10.95;;;;;;;11.69;63.71;100732.02;262686;1107;101973;-74
2021/06/03 22:14:58;;;;;;;24.15;12.70;;;;;;;11.73;64.18;100738.56;260296;1106;103422;-75
2021/06/03 22:20:07;;;;;;;19.28;14.10;;;;;;;11.73;63.93;100733.22;261009;1107;103002;-76
2021/06/03 22:25:15;;;;;;;15.43;10.28;;;;;;;11.69;63.58;100734.69;261359;1103;103228;-76
2021/06/03 22:30:23;;;;;;;17.00;12.43;;;;;;;11.58;63.85;100727.40;260506;1107;103178;-77
2021/06/03 22:35:29;;;;;;;15.88;10.45;;;;;;;11.46;64.16;100729.12;260182;1107;103118;-77
2021/06/03 22:40:36;;;;;;;18.50;11.25;;;;;;;11.34;64.48;100730.83;260376;1107;102970;-76
2021/06/03 22:45:43;;;;;;;9.53;7.98;;;;;;;11.22;64.74;100732.56;260391;1107;103059;-75
2021/06/03 22:50:56;;;;;;;34.80;12.18;;;;;;;11.14;64.74;100737.12;260113;1107;103014;-75
2021/06/03 22:56:10;;;;;;;20.68;13.15;;;;;;;10.99;64.79;100741.94;260396;1107;103043;-75
2021/06/03 23:01:16;;;;;;;15.45;11.25;;;;;;;11.00;65.54;100735.56;260139;1107;103122;-74
2021/06/03 23:06:22;;;;;;;15.63;11.70;;;;;;;11.01;65.53;100736.36;260426;1107;103071;-74
2021/06/03 23:11:35;;;;;;;13.33;11.18;;;;;;;10.98;65.48;100726.95;260169;1101;103035;-74
2021/06/03 23:16:40;;;;;;;20.97;10.53;;;;;;;10.91;65.83;100734.17;260162;1107;103094;-73